Time;durP1;ratioP1;P1;durP2;ratioP2;P2;SDS_P1;SDS_P2;PMS_P1;PMS_P2;Temp;Humidity;BMP_temperature;BMP_pressure;BME280_temperature;BME280_humidity;BME280_pressure;Samples;Min_cycle;Max_cycle;Signal;HPM_P1;HPM_P2
2022/03/08 00:02:14;;;;;;;11.38;6.32;;;0.50;99.90;;;;;;5034555;28;20041;-73
2022/03/08 00:04:40;;;;;;;11.45;6.57;;;0.50;99.90;;;;;;5035550;28;20039;-73
2022/03/08 00:07:06;;;;;;;10.85;6.43;;;0.50;99.90;;;;;;5035309;28;20041;-73
2022/03/08 00:09:32;;;;;;;9.25;6.07;;;0.70;99.90;;;;;;5052113;28;20047;-73
2022/03/08 00:11:57;;;;;;;10.18;6.57;;;0.50;99.90;;;;;;5051469;28;20041;-73
2022/03/08 00:14:23;;;;;;;10.35;6.10;;;0.40;99.90;;;;;;5034708;28;20427;-73
2022/03/08 00:16:49;;;;;;;10.77;6.55;;;0.40;99.90;;;;;;5051297;28;20127;-73
2022/03/08 00:19:15;;;;;;;9.60;5.97;;;0.50;99.90;;;;;;5051125;28;20041;-73
2022/03/08 00:21:41;;;;;;;10.45;6.85;;;0.40;99.90;;;;;;5034922;28;20076;-73
2022/03/08 00:24:08;;;;;;;10.88;6.20;;;0.40;99.90;;;;;;5034672;28;20063;-73
2022/03/08 00:26:34;;;;;;;14.10;6.15;;;0.30;99.90;;;;;;5051069;28;20045;-73
2022/03/08 00:29:00;;;;;;;12.20;6.78;;;0.30;99.90;;;;;;5050991;28;20045;-73
2022/03/08 00:31:26;;;;;;;8.95;6.43;;;0.30;99.90;;;;;;5034653;28;20530;-73
2022/03/08 00:33:52;;;;;;;14.68;7.32;;;0.20;99.90;;;;;;5034641;28;20119;-73
2022/03/08 00:36:17;;;;;;;11.82;6.13;;;0.30;99.90;;;;;;5051167;28;20427;-73
2022/03/08 00:38:43;;;;;;;9.02;6.07;;;0.30;99.90;;;;;;5050923;28;20098;-72
2022/03/08 00:41:09;;;;;;;9.70;6.35;;;0.20;99.90;;;;;;5050757;28;20128;-73
2022/03/08 00:43:35;;;;;;;11.60;6.68;;;0.20;99.90;;;;;;5017752;28;20499;-72
2022/03/08 00:46:00;;;;;;;12.88;7.13;;;0.20;99.90;;;;;;5034100;28;20389;-73
2022/03/08 00:48:26;;;;;;;13.68;7.35;;;0.10;99.90;;;;;;5051023;28;20559;-72
2022/03/08 00:50:52;;;;;;;11.90;7.13;;;0.10;99.90;;;;;;5050997;28;20233;-73
2022/03/08 00:53:18;;;;;;;11.60;6.90;;;0.20;99.90;;;;;;5034311;28;20041;-73
2022/03/08 00:55:44;;;;;;;11.13;6.57;;;0.50;99.90;;;;;;5033639;28;20033;-72
2022/03/08 00:58:10;;;;;;;8.88;6.75;;;0.10;99.90;;;;;;5050601;28;20098;-73
2022/03/08 01:00:37;;;;;;;10.73;7.65;;;0.10;99.90;;;;;;5033891;28;20397;-73
2022/03/08 01:03:04;;;;;;;10.13;7.55;;;0.10;99.90;;;;;;5033778;28;20056;-72
2022/03/08 01:05:30;;;;;;;14.68;7.82;;;0.10;99.90;;;;;;5033804;28;20045;-72
2022/03/08 01:07:57;;;;;;;11.82;7.40;;;0.10;99.90;;;;;;5034221;28;20044;-73
2022/03/08 01:10:25;;;;;;;9.98;6.03;;;0.00;99.90;;;;;;5050362;28;20048;-73
2022/03/08 01:12:53;;;;;;;14.00;7.88;;;0.10;99.90;;;;;;5050074;28;20076;-73
2022/03/08 01:15:19;;;;;;;10.48;6.97;;;0.10;99.90;;;;;;5033914;28;20045;-73
2022/03/08 01:17:47;;;;;;;13.82;7.75;;;0.00;99.90;;;;;;5017556;28;20041;-73
2022/03/08 01:20:14;;;;;;;11.32;6.97;;;0.10;99.90;;;;;;5034023;28;20174;-73
2022/03/08 01:22:40;;;;;;;13.52;7.25;;;0.00;99.90;;;;;;5033596;28;20094;-73
2022/03/08 01:25:07;;;;;;;11.25;6.85;;;0.00;99.90;;;;;;5050453;28;20036;-74
2022/03/08 01:27:33;;;;;;;12.02;6.97;;;-0.10;99.90;;;;;;5050235;28;20467;-74
2022/03/08 01:29:59;;;;;;;11.60;6.65;;;-0.10;99.90;;;;;;5050130;28;20416;-73
2022/03/08 01:32:25;;;;;;;14.77;7.78;;;-0.10;99.90;;;;;;5049962;28;20052;-73
2022/03/08 01:34:51;;;;;;;13.70;7.15;;;-0.10;99.90;;;;;;5034238;28;20388;-73
2022/03/08 01:37:16;;;;;;;9.63;6.57;;;-0.10;99.90;;;;;;5050468;28;20049;-73
2022/03/08 01:39:42;;;;;;;12.05;7.15;;;-0.20;99.90;;;;;;5050273;28;20037;-73
2022/03/08 01:42:14;;;;;;;11.85;6.97;;;-0.20;99.90;;;;;;5050279;28;20049;-73
2022/03/08 01:44:41;;;;;;;13.15;7.72;;;-0.10;99.90;;;;;;5033430;28;20037;-73
2022/03/08 01:47:08;;;;;;;13.45;8.05;;;-0.10;99.90;;;;;;5033683;28;20037;-73
2022/03/08 01:49:33;;;;;;;10.93;6.57;;;-0.20;99.90;;;;;;5050192;28;20131;-73
2022/03/08 01:51:59;;;;;;;14.00;7.32;;;-0.20;99.90;;;;;;5050030;28;20123;-73
2022/03/08 01:54:25;;;;;;;11.07;6.63;;;-0.20;99.90;;;;;;5050176;28;20523;-73
2022/03/08 01:56:51;;;;;;;10.07;6.53;;;-0.20;99.90;;;;;;5049795;28;20394;-73
2022/03/08 01:59:16;;;;;;;13.02;8.02;;;-0.30;99.90;;;;;;5016984;28;20432;-73
2022/03/08 02:01:42;;;;;;;10.75;7.53;;;-0.20;99.90;;;;;;5033438;28;20140;-73
2022/03/08 02:04:08;;;;;;;11.27;7.18;;;-0.20;99.90;;;;;;5033415;28;20041;-74
2022/03/08 02:06:34;;;;;;;13.40;7.70;;;-0.30;99.90;;;;;;5033732;28;20476;-74
2022/03/08 02:09:00;;;;;;;14.10;7.72;;;-0.30;99.90;;;;;;5049854;28;20037;-73
2022/03/08 02:11:26;;;;;;;11.25;7.70;;;-0.20;99.90;;;;;;5050289;28;20138;-74
2022/03/08 02:13:52;;;;;;;12.43;7.43;;;-0.30;99.90;;;;;;5050364;28;20071;-73
2022/03/08 02:16:17;;;;;;;12.98;8.02;;;-0.30;99.90;;;;;;5049963;28;20037;-73
2022/03/08 02:18:43;;;;;;;12.80;6.85;;;-0.30;99.90;;;;;;5049884;28;20581;-73
2022/03/08 02:21:09;;;;;;;13.18;7.95;;;-0.20;99.90;;;;;;5049931;28;20084;-73
2022/03/08 02:23:35;;;;;;;11.95;7.45;;;-0.20;99.90;;;;;;5033312;28;20045;-73
2022/03/08 02:26:01;;;;;;;12.25;7.47;;;-0.20;99.90;;;;;;5035999;28;20045;-73
2022/03/08 02:28:28;;;;;;;14.07;8.07;;;-0.20;99.90;;;;;;5036714;28;20059;-73
2022/03/08 02:30:54;;;;;;;14.10;7.38;;;-0.20;99.90;;;;;;5037298;28;20564;-73
2022/03/08 02:33:20;;;;;;;12.43;7.32;;;-0.20;99.90;;;;;;5053305;28;20127;-73
2022/03/08 02:35:46;;;;;;;12.52;8.00;;;-0.20;99.90;;;;;;5053266;28;20511;-74
2022/03/08 02:38:12;;;;;;;16.13;7.50;;;-0.20;99.90;;;;;;5053562;28;20124;-73
2022/03/08 02:40:40;;;;;;;13.93;8.27;;;-0.20;99.90;;;;;;5053244;28;20127;-73
2022/03/08 02:43:08;;;;;;;12.23;7.88;;;-0.20;99.90;;;;;;5053160;28;20120;-73
2022/03/08 02:45:34;;;;;;;14.30;8.27;;;-0.30;99.90;;;;;;5036403;28;20040;-74
2022/03/08 02:48:00;;;;;;;14.75;8.05;;;-0.30;99.90;;;;;;5053157;28;20047;-73
2022/03/08 02:50:26;;;;;;;16.30;8.35;;;-0.30;99.90;;;;;;5052973;28;20045;-73
2022/03/08 02:52:55;;;;;;;12.75;7.90;;;-0.30;99.90;;;;;;5036359;28;20099;-73
2022/03/08 02:55:25;;;;;;;14.45;8.85;;;-0.40;99.90;;;;;;5052805;28;20094;-73
2022/03/08 02:57:52;;;;;;;14.60;8.50;;;-0.40;99.90;;;;;;5052432;28;20049;-73
2022/03/08 03:00:19;;;;;;;15.68;8.50;;;-0.40;99.90;;;;;;5052807;28;20052;-73
2022/03/08 03:02:46;;;;;;;12.52;7.85;;;-0.40;99.90;;;;;;5019515;28;20041;-73
2022/03/08 03:05:12;;;;;;;13.45;8.30;;;-0.40;99.90;;;;;;5035951;28;20041;-73
2022/03/08 03:07:39;;;;;;;14.18;8.15;;;-0.40;99.90;;;;;;5036207;28;20040;-73
2022/03/08 03:10:14;;;;;;;15.30;8.05;;;-0.40;99.90;;;;;;5053079;28;20120;-73
2022/03/08 03:12:40;;;;;;;17.75;7.57;;;-0.40;99.90;;;;;;5052449;28;20040;-73
2022/03/08 03:15:09;;;;;;;15.20;9.07;;;-0.40;99.90;;;;;;5036031;28;20537;-73
2022/03/08 03:17:35;;;;;;;14.70;8.95;;;-0.50;99.90;;;;;;5052470;28;20037;-73
2022/03/08 03:20:01;;;;;;;14.27;8.07;;;-0.50;99.90;;;;;;5052664;28;20064;-74
2022/03/08 03:22:26;;;;;;;16.65;8.73;;;-0.50;99.90;;;;;;5035883;28;20182;-73
2022/03/08 03:24:52;;;;;;;16.38;8.38;;;-0.50;99.90;;;;;;5052472;28;20094;-73
2022/03/08 03:27:18;;;;;;;13.57;7.78;;;-0.50;99.90;;;;;;5052256;28;20148;-73
2022/03/08 03:29:44;;;;;;;16.27;8.32;;;-0.60;99.90;;;;;;5052209;28;20053;-73
2022/03/08 03:32:09;;;;;;;14.30;8.43;;;-0.60;99.90;;;;;;5035657;28;20041;-73
2022/03/08 03:34:35;;;;;;;14.23;8.48;;;-0.60;99.90;;;;;;5052182;28;20049;-73
2022/03/08 03:37:01;;;;;;;13.75;8.93;;;-0.60;99.90;;;;;;5035532;28;20063;-73
2022/03/08 03:39:27;;;;;;;16.20;9.63;;;-0.70;99.90;;;;;;5035631;28;20404;-73
2022/03/08 03:41:52;;;;;;;15.32;7.68;;;-0.70;99.90;;;;;;5051855;28;20460;-73
2022/03/08 03:44:18;;;;;;;14.43;8.32;;;-0.70;99.90;;;;;;5018872;28;20052;-73
2022/03/08 03:46:44;;;;;;;17.20;8.88;;;-0.70;99.90;;;;;;5018667;28;20071;-73
2022/03/08 03:49:09;;;;;;;15.88;9.18;;;-0.70;99.90;;;;;;5051819;28;20043;-75
2022/03/08 03:51:35;;;;;;;17.13;8.68;;;-0.50;99.90;;;;;;5035150;28;20045;-73
2022/03/08 03:54:01;;;;;;;15.77;8.40;;;-0.70;99.90;;;;;;5051576;28;20388;-73
2022/03/08 03:56:26;;;;;;;16.02;8.98;;;-0.70;99.90;;;;;;5035153;28;20416;-73
2022/03/08 03:58:52;;;;;;;15.02;9.20;;;-0.70;99.90;;;;;;5051610;28;20048;-73
2022/03/08 04:01:18;;;;;;;15.73;10.00;;;-0.70;99.90;;;;;;5051658;28;20063;-73
2022/03/08 04:03:44;;;;;;;16.35;9.52;;;-0.70;99.90;;;;;;5035184;28;20048;-73
2022/03/08 04:06:09;;;;;;;15.27;9.05;;;-0.70;99.90;;;;;;5034945;28;20040;-73
2022/03/08 04:08:35;;;;;;;17.20;9.90;;;-0.70;99.90;;;;;;5052091;28;20361;-73
2022/03/08 04:11:01;;;;;;;17.73;9.00;;;-0.80;99.90;;;;;;5034852;28;20132;-73
2022/03/08 04:13:27;;;;;;;17.33;8.90;;;-0.80;99.90;;;;;;5051635;28;20080;-73
2022/03/08 04:15:53;;;;;;;13.85;9.05;;;-0.80;99.90;;;;;;5051389;28;20041;-73
2022/03/08 04:18:19;;;;;;;16.95;9.35;;;-0.80;99.90;;;;;;5051544;28;20159;-73
2022/03/08 04:20:45;;;;;;;17.98;8.75;;;-0.90;99.90;;;;;;5051654;28;20107;-73
2022/03/08 04:23:11;;;;;;;12.68;8.02;;;-0.90;99.90;;;;;;5051094;28;20045;-73
2022/03/08 04:25:36;;;;;;;16.63;10.75;;;-0.90;99.90;;;;;;5051116;28;20250;-73
2022/03/08 04:28:04;;;;;;;18.05;10.27;;;-0.90;99.90;;;;;;5051192;28;20068;-73
2022/03/08 04:30:30;;;;;;;14.43;8.93;;;-0.90;99.90;;;;;;5034571;28;20049;-73
2022/03/08 04:32:57;;;;;;;15.43;8.27;;;-1.00;99.90;;;;;;5050965;28;20044;-73
2022/03/08 04:35:22;;;;;;;13.73;8.18;;;-1.00;99.90;;;;;;5051170;28;20066;-73
2022/03/08 04:37:49;;;;;;;16.00;9.35;;;-1.00;99.90;;;;;;5034749;28;20036;-73
2022/03/08 04:40:15;;;;;;;16.15;9.55;;;-1.00;99.90;;;;;;5051358;28;20037;-73
2022/03/08 04:42:42;;;;;;;16.60;9.65;;;-1.10;99.90;;;;;;5051338;28;20037;-73
2022/03/08 04:45:10;;;;;;;13.40;8.65;;;-1.00;99.90;;;;;;5034202;28;20048;-73
2022/03/08 04:47:37;;;;;;;16.90;9.90;;;-1.00;99.90;;;;;;5050345;28;20041;-73
2022/03/08 04:50:09;;;;;;;18.17;10.75;;;-1.10;99.90;;;;;;5034221;28;20041;-74
2022/03/08 04:52:35;;;;;;;15.90;9.40;;;-1.10;99.90;;;;;;5051165;28;20051;-73
2022/03/08 04:55:03;;;;;;;20.73;9.88;;;-1.10;99.90;;;;;;5051019;28;20040;-73
2022/03/08 04:57:28;;;;;;;16.73;9.20;;;-1.10;99.90;;;;;;5050565;28;20055;-73
2022/03/08 04:59:54;;;;;;;14.80;9.18;;;-1.10;99.90;;;;;;5050946;28;20045;-73
2022/03/08 05:02:20;;;;;;;17.80;10.55;;;-1.20;99.90;;;;;;5050543;28;20090;-73
2022/03/08 05:04:46;;;;;;;13.93;8.45;;;-1.10;99.90;;;;;;5050939;28;20037;-72
2022/03/08 05:07:11;;;;;;;17.10;9.80;;;-1.10;99.90;;;;;;5033963;28;20043;-72
2022/03/08 05:09:37;;;;;;;17.90;10.15;;;-1.10;99.90;;;;;;5050556;28;20041;-72
2022/03/08 05:12:03;;;;;;;17.88;9.93;;;-1.20;99.90;;;;;;5050623;28;20063;-72
2022/03/08 05:14:31;;;;;;;17.40;10.32;;;-1.10;99.90;;;;;;5050430;28;20093;-72
2022/03/08 05:16:56;;;;;;;16.83;10.27;;;-1.10;99.90;;;;;;5050360;28;20116;-72
2022/03/08 05:19:22;;;;;;;18.88;11.50;;;-1.10;99.90;;;;;;5034119;28;20183;-73
2022/03/08 05:21:48;;;;;;;18.10;10.82;;;-1.10;99.90;;;;;;5034313;28;20045;-72
2022/03/08 05:24:14;;;;;;;16.58;10.23;;;-1.10;99.90;;;;;;5050353;28;20045;-73
2022/03/08 05:26:39;;;;;;;19.10;10.70;;;-1.10;99.90;;;;;;5033674;28;20052;-73
2022/03/08 05:29:07;;;;;;;18.15;10.90;;;-0.70;99.90;;;;;;5050390;28;20038;-73
2022/03/08 05:31:33;;;;;;;23.30;11.32;;;-1.10;99.90;;;;;;5050228;28;20055;-73
2022/03/08 05:33:59;;;;;;;19.73;10.88;;;-1.10;99.90;;;;;;5049986;28;20496;-73
2022/03/08 05:36:26;;;;;;;16.67;10.57;;;-1.10;99.90;;;;;;5034254;28;20106;-73
2022/03/08 05:38:52;;;;;;;17.80;10.85;;;-1.10;99.90;;;;;;5050178;28;20041;-73
2022/03/08 05:41:17;;;;;;;20.73;11.88;;;-1.10;99.90;;;;;;5033996;28;20076;-73
2022/03/08 05:43:44;;;;;;;18.42;10.90;;;-1.00;99.90;;;;;;5033487;28;20080;-73
2022/03/08 05:46:10;;;;;;;21.92;12.60;;;-1.10;99.90;;;;;;5050149;28;20041;-73
2022/03/08 05:48:36;;;;;;;21.85;12.13;;;-0.40;99.90;;;;;;5050086;28;20037;-73
2022/03/08 05:51:02;;;;;;;22.45;11.25;;;-1.10;99.90;;;;;;5033614;28;20562;-73
2022/03/08 05:53:28;;;;;;;17.40;11.45;;;-1.00;99.90;;;;;;5050120;28;20403;-73
2022/03/08 05:55:53;;;;;;;21.67;12.35;;;-1.00;99.90;;;;;;5050203;28;20052;-73
2022/03/08 05:58:19;;;;;;;20.95;13.48;;;-1.00;99.90;;;;;;5033360;28;20076;-73
2022/03/08 06:00:45;;;;;;;18.77;11.88;;;-1.00;99.90;;;;;;5035654;28;20132;-74
2022/03/08 06:03:11;;;;;;;19.23;11.75;;;-1.00;99.90;;;;;;5037444;28;20040;-74
2022/03/08 06:05:36;;;;;;;20.85;11.35;;;-0.50;99.90;;;;;;5037308;28;20045;-74
2022/03/08 06:08:03;;;;;;;19.48;11.77;;;-1.00;99.90;;;;;;5037641;28;20086;-74
2022/03/08 06:10:29;;;;;;;22.73;13.90;;;-1.10;99.90;;;;;;5037207;28;20086;-74
2022/03/08 06:12:55;;;;;;;18.92;12.70;;;-1.00;99.90;;;;;;5037631;28;20403;-74
2022/03/08 06:15:21;;;;;;;24.27;13.57;;;-1.00;99.90;;;;;;5053664;28;20047;-74
2022/03/08 06:17:46;;;;;;;19.85;12.60;;;-1.00;99.90;;;;;;5037184;28;20041;-75
2022/03/08 06:20:12;;;;;;;19.25;12.20;;;-1.00;99.90;;;;;;5054082;28;20094;-74
2022/03/08 06:22:39;;;;;;;20.88;11.93;;;-1.00;99.90;;;;;;5053824;28;20045;-74
2022/03/08 06:25:05;;;;;;;19.65;12.73;;;-1.00;99.90;;;;;;5053541;28;20049;-75
2022/03/08 06:27:31;;;;;;;19.50;12.77;;;-1.00;99.90;;;;;;5053864;28;20052;-75
2022/03/08 06:29:57;;;;;;;21.40;13.00;;;-1.00;99.90;;;;;;5036955;28;20045;-74
2022/03/08 06:32:22;;;;;;;21.05;13.13;;;-1.00;99.90;;;;;;5020250;28;20471;-75
2022/03/08 06:34:51;;;;;;;23.08;12.25;;;-1.00;99.90;;;;;;5036699;28;20040;-75
2022/03/08 06:37:17;;;;;;;20.00;11.52;;;-0.90;99.90;;;;;;5053331;28;20549;-75
2022/03/08 06:39:43;;;;;;;19.30;11.68;;;-1.00;99.90;;;;;;5037091;28;20052;-74
2022/03/08 06:42:09;;;;;;;19.42;12.10;;;-0.90;99.90;;;;;;5036646;28;20037;-74
2022/03/08 06:44:38;;;;;;;19.00;11.88;;;-0.90;99.90;;;;;;5053215;28;20096;-74
2022/03/08 06:47:08;;;;;;;20.73;12.18;;;-0.80;99.90;;;;;;5053488;28;20088;-74
2022/03/08 06:49:36;;;;;;;21.40;12.27;;;-0.80;99.90;;;;;;5052908;28;20412;-74
2022/03/08 06:52:02;;;;;;;22.63;13.13;;;-0.80;99.90;;;;;;5053494;28;20081;-75
2022/03/08 06:54:28;;;;;;;24.45;12.85;;;-0.70;99.90;;;;;;5052788;28;20076;-74
2022/03/08 06:56:53;;;;;;;21.13;12.27;;;-0.60;99.90;;;;;;5052962;28;20056;-74
2022/03/08 06:59:19;;;;;;;24.00;13.88;;;-0.60;99.90;;;;;;5036139;28;20049;-75
2022/03/08 07:01:45;;;;;;;21.35;13.27;;;-0.50;99.90;;;;;;5036096;28;20404;-74
2022/03/08 07:04:10;;;;;;;21.30;12.30;;;-0.40;99.90;;;;;;5053074;28;20403;-74
2022/03/08 07:06:36;;;;;;;22.65;13.32;;;-0.30;99.90;;;;;;5053233;28;20060;-74
2022/03/08 07:09:03;;;;;;;19.88;12.30;;;-0.20;99.90;;;;;;5019741;28;20131;-74
2022/03/08 07:11:29;;;;;;;22.98;13.00;;;-0.10;99.90;;;;;;5052725;28;20045;-74
2022/03/08 07:13:54;;;;;;;23.65;13.45;;;0.00;99.90;;;;;;5052702;28;20048;-74
2022/03/08 07:16:20;;;;;;;22.05;12.82;;;0.10;99.90;;;;;;5052061;28;20087;-74
2022/03/08 07:18:46;;;;;;;20.92;12.88;;;0.20;99.90;;;;;;5036386;28;20123;-73
2022/03/08 07:21:11;;;;;;;20.60;13.10;;;0.30;99.90;;;;;;5052190;28;20048;-75
2022/03/08 07:23:37;;;;;;;24.00;13.93;;;0.50;99.90;;;;;;5035852;28;20041;-76
2022/03/08 07:26:04;;;;;;;18.05;11.82;;;0.60;99.90;;;;;;5052463;28;20045;-74
2022/03/08 07:28:30;;;;;;;22.38;11.88;;;0.60;99.90;;;;;;5052105;28;20102;-74
2022/03/08 07:30:56;;;;;;;20.30;13.00;;;0.80;99.90;;;;;;5035898;28;20484;-75
2022/03/08 07:33:21;;;;;;;18.35;12.90;;;0.90;99.90;;;;;;5051892;28;20099;-74
2022/03/08 07:35:47;;;;;;;22.45;13.02;;;1.10;99.90;;;;;;5051917;28;20489;-75
2022/03/08 07:38:13;;;;;;;20.92;12.15;;;1.20;99.90;;;;;;5035508;28;20045;-75
2022/03/08 07:40:38;;;;;;;19.23;12.38;;;1.30;99.90;;;;;;5051870;28;20041;-74
2022/03/08 07:43:04;;;;;;;19.83;12.50;;;1.40;99.90;;;;;;5035280;28;20049;-74
2022/03/08 07:45:30;;;;;;;19.55;12.30;;;1.60;99.90;;;;;;5052433;28;20040;-74
2022/03/08 07:47:56;;;;;;;21.17;12.25;;;1.70;99.90;;;;;;5051765;28;20076;-74
2022/03/08 07:50:22;;;;;;;18.77;12.05;;;2.10;99.90;;;;;;5035224;28;20516;-74
2022/03/08 07:52:49;;;;;;;18.05;12.07;;;1.90;99.90;;;;;;5035407;28;20094;-74
2022/03/08 07:55:15;;;;;;;19.35;11.93;;;2.70;99.90;;;;;;5051696;28;20041;-74
2022/03/08 07:57:40;;;;;;;20.65;11.90;;;2.30;99.90;;;;;;5051651;28;20408;-74
2022/03/08 08:00:07;;;;;;;19.30;12.85;;;2.30;99.90;;;;;;5035061;28;20045;-74
2022/03/08 08:02:33;;;;;;;18.98;10.68;;;2.40;99.90;;;;;;5018487;28;20048;-74
2022/03/08 08:04:59;;;;;;;18.75;12.05;;;2.50;99.90;;;;;;5051500;28;20033;-74
2022/03/08 08:07:25;;;;;;;17.45;11.90;;;2.90;99.90;;;;;;5051877;28;20047;-74
2022/03/08 08:09:50;;;;;;;19.17;11.50;;;2.70;99.90;;;;;;5034844;28;20455;-75
2022/03/08 08:12:16;;;;;;;22.08;11.75;;;2.90;99.90;;;;;;5051323;28;20045;-74
2022/03/08 08:14:42;;;;;;;20.08;11.77;;;3.90;99.90;;;;;;5051441;28;20047;-75
2022/03/08 08:17:07;;;;;;;21.98;12.50;;;3.10;99.90;;;;;;5051167;28;20127;-75
2022/03/08 08:19:33;;;;;;;21.10;10.75;;;3.20;99.90;;;;;;5035255;28;20410;-75
2022/03/08 08:21:59;;;;;;;16.02;9.68;;;3.30;99.90;;;;;;5050825;28;20052;-75
2022/03/08 08:24:24;;;;;;;16.27;11.30;;;3.40;99.90;;;;;;5050573;28;20041;-75
2022/03/08 08:26:50;;;;;;;14.80;10.18;;;3.50;99.90;;;;;;5034603;28;20048;-75
2022/03/08 08:29:16;;;;;;;16.13;11.40;;;;;;;;;;5051248;28;20045;-76
2022/03/08 08:31:42;;;;;;;14.70;9.70;;;4.20;99.90;;;;;;5051250;28;20044;-74
2022/03/08 08:34:08;;;;;;;16.10;10.27;;;4.00;99.90;;;;;;5034681;28;20522;-74
2022/03/08 08:36:34;;;;;;;18.67;10.27;;;4.00;99.90;;;;;;5034424;28;20044;-74
2022/03/08 08:38:59;;;;;;;14.40;10.00;;;4.00;99.90;;;;;;5018151;28;20037;-74
2022/03/08 08:41:25;;;;;;;16.35;9.80;;;4.10;99.90;;;;;;5034329;28;20037;-74
2022/03/08 08:43:52;;;;;;;16.00;10.82;;;4.30;99.90;;;;;;5018338;28;20091;-75
2022/03/08 08:46:18;;;;;;;15.05;9.65;;;;;;;;;;5017759;28;20052;-75
2022/03/08 08:48:44;;;;;;;15.15;9.75;;;4.50;99.90;;;;;;5050758;28;20132;-75
2022/03/08 08:51:09;;;;;;;18.73;10.50;;;4.60;99.90;;;;;;5050683;28;20154;-75
2022/03/08 08:53:35;;;;;;;16.52;10.32;;;4.70;99.90;;;;;;5050777;28;20139;-75
2022/03/08 08:56:01;;;;;;;13.73;10.38;;;4.80;99.90;;;;;;5034050;28;20120;-75
2022/03/08 08:58:26;;;;;;;13.15;9.80;;;4.90;99.90;;;;;;5034085;28;20397;-75
2022/03/08 09:00:52;;;;;;;13.63;10.57;;;4.90;99.90;;;;;;5034418;28;20037;-75
2022/03/08 09:03:18;;;;;;;14.80;10.00;;;5.00;99.90;;;;;;5050880;28;20087;-75
2022/03/08 09:05:45;;;;;;;12.07;9.27;;;5.10;99.90;;;;;;5034225;28;20045;-76
2022/03/08 09:08:11;;;;;;;15.55;10.30;;;5.20;99.90;;;;;;5017517;28;20052;-74
2022/03/08 09:10:37;;;;;;;15.98;10.30;;;5.20;99.90;;;;;;5033963;28;20145;-74
2022/03/08 09:13:05;;;;;;;13.75;9.52;;;5.30;99.90;;;;;;5050639;28;20475;-74
2022/03/08 09:15:31;;;;;;;12.10;8.48;;;5.30;99.90;;;;;;5034372;28;20098;-74
2022/03/08 09:17:57;;;;;;;12.77;9.38;;;5.40;99.90;;;;;;5033811;28;20400;-74
2022/03/08 09:20:25;;;;;;;15.32;9.50;;;5.50;99.90;;;;;;5050416;28;20045;-73
2022/03/08 09:22:55;;;;;;;14.52;9.80;;;5.70;99.90;;;;;;5050835;28;20045;-74
2022/03/08 09:25:22;;;;;;;13.05;9.18;;;5.60;99.90;;;;;;5033916;28;20049;-74
2022/03/08 09:27:48;;;;;;;12.90;9.23;;;5.60;99.90;;;;;;5001481;28;20074;-75
2022/03/08 09:30:14;;;;;;;14.60;9.98;;;6.00;99.90;;;;;;5050715;28;20396;-75
2022/03/08 09:32:40;;;;;;;13.95;9.10;;;6.10;99.90;;;;;;5033876;28;20045;-74
2022/03/08 09:35:06;;;;;;;15.07;9.38;;;6.10;99.90;;;;;;5036630;28;20120;-74
2022/03/08 09:37:32;;;;;;;11.55;8.38;;;6.00;99.90;;;;;;5054429;28;20059;-74
2022/03/08 09:39:58;;;;;;;13.45;9.07;;;;;;;;;;5021350;28;20132;-74
2022/03/08 09:42:24;;;;;;;12.30;9.48;;;6.40;99.90;;;;;;5054264;28;20041;-74
2022/03/08 09:44:49;;;;;;;11.98;9.27;;;6.60;99.90;;;;;;5054536;28;20067;-75
2022/03/08 09:47:16;;;;;;;13.20;8.63;;;6.70;99.90;;;;;;5037539;28;20033;-74
2022/03/08 09:49:42;;;;;;;11.77;8.65;;;6.80;99.90;;;;;;5054874;28;20369;-75
2022/03/08 09:52:08;;;;;;;14.00;7.80;;;7.10;99.90;;;;;;5021082;28;20355;-75
2022/03/08 09:54:34;;;;;;;13.57;8.55;;;6.70;99.90;;;;;;5037238;28;20443;-74
2022/03/08 09:57:08;;;;;;;13.80;8.63;;;7.10;99.90;;;;;;5037133;28;20053;-75
2022/03/08 09:59:33;;;;;;;12.88;8.70;;;6.80;99.90;;;;;;5037217;28;20052;-75
2022/03/08 10:01:59;;;;;;;14.25;8.05;;;7.60;99.90;;;;;;5053880;28;20037;-74
2022/03/08 10:04:25;;;;;;;10.32;6.20;;;7.40;99.90;;;;;;5037678;28;20051;-73
2022/03/08 10:06:51;;;;;;;9.98;7.32;;;7.30;99.90;;;;;;5037521;28;20052;-73
2022/03/08 10:09:19;;;;;;;11.13;7.68;;;7.80;99.90;;;;;;5053866;28;20119;-73
2022/03/08 10:11:54;;;;;;;10.48;7.25;;;7.70;99.90;;;;;;5053640;28;20063;-74
2022/03/08 10:14:29;;;;;;;9.00;6.45;;;7.30;99.90;;;;;;5053393;28;20076;-74
2022/03/08 10:16:55;;;;;;;9.07;6.30;;;7.50;99.90;;;;;;5053887;28;20049;-74
2022/03/08 10:19:20;;;;;;;8.30;6.13;;;7.80;99.90;;;;;;5037597;28;20044;-74
2022/03/08 10:21:47;;;;;;;8.65;6.13;;;7.80;99.90;;;;;;5053723;28;20048;-75
2022/03/08 10:24:28;;;;;;;8.80;6.22;;;7.60;99.90;;;;;;5037287;28;20179;-75
2022/03/08 10:27:05;;;;;;;9.43;5.65;;;7.60;99.90;;;;;;5037282;28;20048;-74
2022/03/08 10:29:36;;;;;;;12.13;6.95;;;7.60;99.90;;;;;;5053501;28;20048;-74
2022/03/08 10:32:17;;;;;;;9.23;7.05;;;7.70;99.90;;;;;;5053818;28;20041;-74
2022/03/08 10:34:43;;;;;;;9.00;6.90;;;8.30;99.90;;;;;;5036623;28;20041;-74
2022/03/08 10:37:20;;;;;;;8.57;5.70;;;8.00;99.90;;;;;;5053249;28;20084;-74
2022/03/08 10:39:51;;;;;;;9.95;6.20;;;8.20;99.90;;;;;;5053195;28;20043;-74
2022/03/08 10:42:25;;;;;;;9.65;7.40;;;8.00;99.90;;;;;;5053409;28;20045;-75
2022/03/08 10:45:02;;;;;;;10.45;6.47;;;7.80;99.90;;;;;;5053242;28;20124;-74
2022/03/08 10:47:36;;;;;;;8.82;6.43;;;8.10;99.90;;;;;;5052373;28;20036;-74
2022/03/08 10:50:03;;;;;;;9.70;6.90;;;8.20;99.90;;;;;;5053168;28;20123;-75
2022/03/08 10:52:34;;;;;;;10.75;6.78;;;8.30;99.90;;;;;;5003908;28;20048;-75
2022/03/08 10:55:18;;;;;;;12.52;6.68;;;8.30;99.90;;;;;;5052870;28;20037;-75
2022/03/08 10:57:53;;;;;;;8.60;6.50;;;8.40;99.90;;;;;;5052957;28;20053;-75
2022/03/08 11:00:23;;;;;;;11.13;6.85;;;8.40;99.90;;;;;;5036348;28;20041;-75
2022/03/08 11:02:53;;;;;;;9.05;6.60;;;8.50;99.90;;;;;;5053018;28;20097;-74
2022/03/08 11:05:20;;;;;;;8.63;5.80;;;8.50;99.90;;;;;;5036085;28;20076;-75
2022/03/08 11:07:47;;;;;;;9.15;6.13;;;8.50;99.90;;;;;;5036480;28;20067;-74
2022/03/08 11:10:14;;;;;;;7.60;5.80;;;8.30;99.90;;;;;;5052663;28;20146;-74
2022/03/08 11:12:41;;;;;;;7.55;5.30;;;9.60;99.90;;;;;;5019395;28;20048;-75
2022/03/08 11:15:09;;;;;;;8.48;6.55;;;8.70;99.90;;;;;;5035748;28;20041;-74
2022/03/08 11:17:37;;;;;;;8.27;5.90;;;8.70;99.90;;;;;;5052847;28;20480;-73
2022/03/08 11:20:05;;;;;;;6.55;4.95;;;8.60;99.90;;;;;;5052824;28;20129;-74
2022/03/08 11:22:31;;;;;;;7.00;5.30;;;8.80;99.90;;;;;;5035716;28;20043;-74
2022/03/08 11:24:57;;;;;;;6.88;5.50;;;8.90;99.90;;;;;;5035660;28;20072;-74
2022/03/08 11:27:24;;;;;;;8.65;5.55;;;9.10;99.90;;;;;;5035561;28;20519;-74
2022/03/08 11:29:51;;;;;;;8.18;4.68;;;9.50;98.80;;;;;;5036081;28;20049;-75
2022/03/08 11:32:22;;;;;;;8.18;4.55;;;9.10;99.20;;;;;;5052247;28;20331;-74
2022/03/08 11:35:01;;;;;;;8.13;4.88;;;9.10;99.10;;;;;;5052075;28;20412;-75
2022/03/08 11:37:29;;;;;;;8.88;5.18;;;9.30;99.90;;;;;;5052167;28;20098;-74
2022/03/08 11:40:13;;;;;;;7.57;4.43;;;9.60;99.90;;;;;;5036032;28;20040;-75
2022/03/08 11:42:44;;;;;;;8.07;4.90;;;9.70;99.90;;;;;;5052125;28;20072;-74
2022/03/08 11:45:18;;;;;;;5.53;4.40;;;9.80;99.90;;;;;;5035274;28;20045;-76
2022/03/08 11:47:53;;;;;;;6.60;4.00;;;10.30;99.90;;;;;;5035217;28;20076;-75
2022/03/08 11:50:27;;;;;;;6.35;4.53;;;10.00;99.90;;;;;;5035290;28;20048;-74
2022/03/08 11:53:05;;;;;;;7.05;4.35;;;10.50;99.90;;;;;;5035536;28;20056;-75
2022/03/08 11:55:37;;;;;;;6.63;4.43;;;10.50;99.90;;;;;;5051787;28;20045;-74
2022/03/08 11:58:19;;;;;;;7.45;4.47;;;10.30;99.90;;;;;;5051904;28;20526;-75
2022/03/08 12:00:52;;;;;;;7.05;4.28;;;10.60;99.90;;;;;;5051781;28;20037;-74
2022/03/08 12:03:24;;;;;;;6.30;3.92;;;10.40;99.90;;;;;;5035063;28;20040;-75
2022/03/08 12:06:01;;;;;;;6.18;4.63;;;;;;;;;;5034899;28;20404;-75
2022/03/08 12:08:29;;;;;;;6.72;4.28;;;10.70;94.70;;;;;;5051512;28;20041;-74
2022/03/08 12:11:27;;;;;;;5.20;3.67;;;10.60;92.70;;;;;;5034998;28;20044;-75
2022/03/08 12:14:02;;;;;;;7.20;4.65;;;10.70;92.80;;;;;;5051550;28;20123;-76
2022/03/08 12:16:28;;;;;;;5.35;4.45;;;10.80;93.40;;;;;;5034778;28;20068;-76
2022/03/08 12:18:56;;;;;;;5.80;4.63;;;11.00;93.60;;;;;;5051373;28;20064;-75
2022/03/08 12:21:21;;;;;;;5.78;3.53;;;11.20;93.70;;;;;;5034652;28;20033;-75
2022/03/08 12:24:01;;;;;;;5.50;4.25;;;11.10;91.80;;;;;;5051127;28;20182;-76
2022/03/08 12:26:40;;;;;;;6.13;4.07;;;11.20;87.10;;;;;;5034697;28;20102;-76
2022/03/08 12:29:07;;;;;;;6.28;4.60;;;11.30;89.50;;;;;;5051486;28;20044;-76
2022/03/08 12:31:54;;;;;;;5.78;4.30;;;11.20;86.40;;;;;;5051558;28;20048;-75
2022/03/08 12:34:42;;;;;;;7.90;4.10;;;11.40;88.50;;;;;;5020565;28;20175;-75
2022/03/08 12:37:19;;;;;;;6.40;4.45;;;11.50;87.40;;;;;;5051457;28;20502;-74
2022/03/08 12:39:57;;;;;;;6.50;4.90;;;11.60;85.30;;;;;;5050842;28;20037;-76
2022/03/08 12:42:39;;;;;;;5.97;4.35;;;11.80;88.30;;;;;;5034719;28;20547;-77